createdAt,value
2018-12-20T00:04:10.713Z,2.60
2018-12-20T00:09:15.801Z,2.60
2018-12-20T00:14:20.863Z,2.60
2018-12-20T00:19:25.855Z,2.60
2018-12-20T00:24:30.768Z,2.70
2018-12-20T00:29:35.487Z,2.70
2018-12-20T00:34:40.367Z,2.80
2018-12-20T00:39:45.309Z,2.70
2018-12-20T00:44:50.297Z,2.60
2018-12-20T00:49:55.140Z,2.70
2018-12-20T00:54:59.958Z,2.70
2018-12-20T01:00:07.501Z,2.70
2018-12-20T01:05:12.588Z,2.80
2018-12-20T01:10:17.791Z,2.80
2018-12-20T01:15:22.755Z,2.60
2018-12-20T01:20:27.927Z,2.70
2018-12-20T01:25:32.906Z,2.70
2018-12-20T01:30:37.870Z,2.70
2018-12-20T01:35:43.029Z,2.50
2018-12-20T01:40:48.129Z,2.50
2018-12-20T01:45:53.175Z,2.40
2018-12-20T01:50:58.337Z,2.50
2018-12-20T01:56:03.431Z,2.50
2018-12-20T02:01:08.364Z,2.60
2018-12-20T02:06:13.331Z,2.50
2018-12-20T02:11:18.454Z,2.50
2018-12-20T02:16:23.355Z,2.40
2018-12-20T02:21:28.329Z,2.30
2018-12-20T02:26:33.245Z,2.40
2018-12-20T02:31:38.073Z,2.40
2018-12-20T02:36:43.063Z,2.40
2018-12-20T02:41:48.084Z,2.50
2018-12-20T02:46:53.098Z,2.50
2018-12-20T02:51:58.014Z,2.50
2018-12-20T02:57:03.099Z,2.50
2018-12-20T03:02:07.936Z,2.60
2018-12-20T03:07:13.134Z,2.60
2018-12-20T03:12:18.184Z,2.50
2018-12-20T03:17:23.306Z,2.50
2018-12-20T03:22:28.265Z,2.50
2018-12-20T03:27:33.316Z,2.60
2018-12-20T03:32:38.154Z,2.70
2018-12-20T03:37:43.165Z,2.80
2018-12-20T03:42:48.103Z,2.80
2018-12-20T03:47:53.214Z,2.70
2018-12-20T03:52:58.188Z,2.70
2018-12-20T03:58:04.259Z,2.70
2018-12-20T04:03:09.327Z,2.70
2018-12-20T04:08:14.436Z,2.50
2018-12-20T04:13:19.420Z,2.60
2018-12-20T04:18:26.439Z,2.60
2018-12-20T04:23:31.322Z,2.60
2018-12-20T04:28:36.236Z,2.70
2018-12-20T04:33:41.281Z,2.70
2018-12-20T04:38:46.336Z,2.60
2018-12-20T04:43:51.610Z,2.60
2018-12-20T04:48:56.991Z,2.70
2018-12-20T04:54:01.910Z,2.50
2018-12-20T04:59:07.842Z,2.50
2018-12-20T05:04:12.863Z,2.40
2018-12-20T05:09:17.684Z,2.40
2018-12-20T05:14:22.881Z,2.40
2018-12-20T05:19:28.023Z,2.40
2018-12-20T05:24:32.971Z,2.30
2018-12-20T05:29:38.226Z,2.30
2018-12-20T05:34:46.027Z,2.30
2018-12-20T05:39:51.302Z,2.30
2018-12-20T05:44:56.380Z,2.30
2018-12-20T05:50:01.380Z,2.30
2018-12-20T05:55:06.468Z,2.20
2018-12-20T06:00:11.782Z,2.20
2018-12-20T06:05:16.707Z,2.30
2018-12-20T06:10:21.682Z,2.30
2018-12-20T06:15:26.599Z,2.30
2018-12-20T06:20:32.583Z,2.40
2018-12-20T06:25:37.655Z,2.30
2018-12-20T06:30:42.594Z,2.30
2018-12-20T06:35:47.773Z,2.30
2018-12-20T06:40:52.578Z,2.30
2018-12-20T06:45:57.546Z,2.30
2018-12-20T06:51:02.452Z,2.40
2018-12-20T06:56:07.221Z,2.30
2018-12-20T07:01:12.087Z,2.30
2018-12-20T07:06:16.962Z,2.20
2018-12-20T07:11:22.003Z,2.30
2018-12-20T07:16:29.470Z,2.20
2018-12-20T07:21:33.928Z,2.30
2018-12-20T07:26:38.920Z,2.30
2018-12-20T07:31:43.933Z,2.40
2018-12-20T07:36:48.863Z,2.50
2018-12-20T07:41:53.916Z,2.50
2018-12-20T07:46:58.796Z,2.50
2018-12-20T07:52:03.684Z,2.50
2018-12-20T07:57:08.664Z,2.50
2018-12-20T08:02:13.635Z,2.60
2018-12-20T08:07:18.487Z,2.60
2018-12-20T08:12:23.504Z,2.70
2018-12-20T08:17:28.476Z,2.80
2018-12-20T08:22:33.412Z,2.70
2018-12-20T08:27:38.239Z,2.80
2018-12-20T08:32:43.308Z,3.00
2018-12-20T08:37:48.148Z,3.00
2018-12-20T08:42:53.031Z,3.10
2018-12-20T08:47:57.913Z,3.00
2018-12-20T08:53:03.015Z,3.10
2018-12-20T08:58:07.907Z,3.20
2018-12-20T09:03:12.885Z,3.30
2018-12-20T09:08:17.743Z,3.30
2018-12-20T09:13:22.696Z,3.40
2018-12-20T09:18:27.639Z,3.50
2018-12-20T09:23:33.798Z,3.60
2018-12-20T09:28:38.765Z,3.70
2018-12-20T09:33:43.822Z,3.80
2018-12-20T09:38:48.660Z,3.80
2018-12-20T09:43:53.716Z,4.00
2018-12-20T09:48:58.561Z,4.10
2018-12-20T09:54:03.465Z,4.00
2018-12-20T09:59:08.448Z,4.10
2018-12-20T10:04:13.287Z,4.10
2018-12-20T10:09:18.258Z,4.10
2018-12-20T10:14:23.278Z,4.30
2018-12-20T10:19:28.163Z,4.40
2018-12-20T10:24:33.181Z,4.60
2018-12-20T10:29:38.059Z,4.70
2018-12-20T10:34:42.949Z,4.60
2018-12-20T10:39:47.848Z,4.70
2018-12-20T10:44:52.722Z,4.80
2018-12-20T10:49:57.520Z,4.90
2018-12-20T10:55:02.580Z,5.20
2018-12-20T11:00:08.510Z,5.40
2018-12-20T11:05:18.401Z,5.60
2018-12-20T11:10:28.449Z,5.80
2018-12-20T11:15:33.436Z,6.00
2018-12-20T11:20:38.389Z,6.10
2018-12-20T11:25:43.523Z,6.10
2018-12-20T11:30:48.502Z,6.00
2018-12-20T11:35:53.438Z,5.90
2018-12-20T11:40:58.376Z,5.90
2018-12-20T11:46:03.185Z,6.10
2018-12-20T11:51:08.267Z,6.30
2018-12-20T11:56:13.104Z,6.70
2018-12-20T12:01:18.189Z,7.20
2018-12-20T12:06:23.015Z,7.70
2018-12-20T12:11:27.925Z,7.90
2018-12-20T12:16:32.811Z,7.90
2018-12-20T12:21:37.673Z,7.70
2018-12-20T12:26:42.606Z,7.60
2018-12-20T12:31:47.457Z,7.70
2018-12-20T12:36:52.403Z,7.70
2018-12-20T12:41:57.331Z,7.40
2018-12-20T12:47:04.383Z,7.20
2018-12-20T12:52:09.195Z,7.00
2018-12-20T12:57:14.243Z,6.60
2018-12-20T13:02:19.186Z,6.40
2018-12-20T13:07:24.219Z,6.50
2018-12-20T13:12:29.091Z,6.60
2018-12-20T13:17:34.124Z,6.50
2018-12-20T13:22:39.072Z,6.40
2018-12-20T13:27:44.142Z,6.30
2018-12-20T13:32:48.973Z,6.20
2018-12-20T13:37:54.009Z,6.20
2018-12-20T13:42:58.767Z,6.00
2018-12-20T13:48:03.701Z,6.00
2018-12-20T13:53:08.538Z,6.00
2018-12-20T13:58:13.291Z,6.00
2018-12-20T14:03:18.120Z,6.00
2018-12-20T14:08:22.991Z,5.90
2018-12-20T14:13:27.933Z,5.90
2018-12-20T14:18:32.681Z,5.90
2018-12-20T14:23:38.032Z,5.80
2018-12-20T14:28:42.975Z,5.70
2018-12-20T14:33:48.062Z,5.50
2018-12-20T14:38:53.088Z,5.30
2018-12-20T14:43:58.039Z,5.20
2018-12-20T14:49:02.903Z,5.20
2018-12-20T14:54:07.936Z,5.20
2018-12-20T14:59:12.887Z,5.30
2018-12-20T15:04:17.833Z,5.20
2018-12-20T15:09:22.769Z,5.20
2018-12-20T15:14:27.817Z,5.20
2018-12-20T15:19:32.576Z,5.20
2018-12-20T15:24:37.623Z,5.20
2018-12-20T15:29:42.565Z,5.20
2018-12-20T15:34:47.400Z,5.10
2018-12-20T15:39:52.353Z,5.20
2018-12-20T15:44:57.307Z,5.10
2018-12-20T15:50:02.287Z,5.10
2018-12-20T15:55:09.686Z,5.00
2018-12-20T16:00:14.715Z,5.10
2018-12-20T16:05:20.445Z,5.00
2018-12-20T16:10:25.527Z,5.00
2018-12-20T16:15:30.379Z,5.00
2018-12-20T16:20:35.444Z,5.00
2018-12-20T16:25:40.385Z,5.00
2018-12-20T16:30:45.308Z,5.00
2018-12-20T16:35:50.248Z,5.00
2018-12-20T16:40:55.015Z,4.90
2018-12-20T16:46:00.067Z,5.00
2018-12-20T16:51:05.027Z,4.90
2018-12-20T16:56:10.164Z,4.90
2018-12-20T17:01:15.120Z,4.80
2018-12-20T17:06:20.064Z,4.90
2018-12-20T17:11:24.992Z,4.80
2018-12-20T17:16:30.163Z,4.80
2018-12-20T17:21:34.985Z,4.90
2018-12-20T17:26:39.954Z,4.90
2018-12-20T17:31:44.910Z,4.70
2018-12-20T17:36:49.956Z,4.50
2018-12-20T17:41:54.800Z,4.50
2018-12-20T17:46:59.849Z,4.40
2018-12-20T17:52:04.791Z,4.30
2018-12-20T17:57:09.654Z,4.40
2018-12-20T18:02:14.595Z,4.40
2018-12-20T18:07:19.505Z,4.40
2018-12-20T18:12:24.515Z,4.50
2018-12-20T18:17:29.407Z,4.50
2018-12-20T18:22:34.293Z,4.50
2018-12-20T18:27:39.254Z,4.60
2018-12-20T18:32:44.296Z,4.60
2018-12-20T18:37:49.255Z,4.70
2018-12-20T18:42:54.299Z,4.60
2018-12-20T18:47:59.456Z,4.60
2018-12-20T18:53:05.402Z,4.70
2018-12-20T18:58:10.355Z,4.50
2018-12-20T19:03:15.230Z,4.50
2018-12-20T19:08:20.274Z,4.50
2018-12-20T19:13:25.366Z,4.50
2018-12-20T19:18:30.325Z,4.40
2018-12-20T19:23:35.219Z,4.30
2018-12-20T19:28:40.805Z,4.30
2018-12-20T19:33:45.670Z,4.20
2018-12-20T19:38:50.973Z,4.10
2018-12-20T19:43:56.543Z,4.00
2018-12-20T19:49:02.386Z,3.90
2018-12-20T19:54:07.598Z,3.80
2018-12-20T19:59:12.593Z,3.80
2018-12-20T20:04:18.649Z,3.80
2018-12-20T20:09:24.972Z,4.00
2018-12-20T20:14:29.917Z,4.00
2018-12-20T20:19:36.200Z,4.00
2018-12-20T20:24:41.547Z,4.10
2018-12-20T20:29:46.782Z,4.00
2018-12-20T20:34:51.617Z,3.90
2018-12-20T20:39:56.664Z,3.80
2018-12-20T20:45:01.833Z,3.90
2018-12-20T20:50:08.107Z,3.80
2018-12-20T20:55:13.147Z,3.80
2018-12-20T21:00:17.993Z,3.70
2018-12-20T21:05:22.864Z,3.80
2018-12-20T21:10:27.806Z,3.80
2018-12-20T21:15:32.851Z,3.80
2018-12-20T21:20:37.672Z,3.90
2018-12-20T21:25:42.647Z,4.00
2018-12-20T21:30:47.699Z,4.00
2018-12-20T21:35:52.734Z,4.20
2018-12-20T21:40:57.660Z,4.20
2018-12-20T21:46:02.635Z,4.10
2018-12-20T21:51:07.724Z,4.20
2018-12-20T21:56:13.623Z,4.20
2018-12-20T22:01:18.463Z,4.30
2018-12-20T22:06:23.343Z,4.30
2018-12-20T22:11:28.507Z,4.20
2018-12-20T22:16:33.567Z,4.30
2018-12-20T22:21:38.718Z,4.30
2018-12-20T22:26:43.561Z,4.30
2018-12-20T22:31:48.603Z,4.30
2018-12-20T22:36:53.475Z,4.30
2018-12-20T22:41:58.290Z,4.30
2018-12-20T22:47:03.240Z,4.30
2018-12-20T22:52:08.278Z,4.10
2018-12-20T22:57:13.324Z,4.00
2018-12-20T23:02:18.450Z,4.00
2018-12-20T23:07:23.348Z,4.00
2018-12-20T23:12:28.275Z,4.00
2018-12-20T23:17:33.117Z,4.00
2018-12-20T23:22:38.096Z,4.00
2018-12-20T23:27:43.034Z,3.90
2018-12-20T23:32:48.072Z,3.90
2018-12-20T23:37:52.911Z,3.80
2018-12-20T23:42:57.726Z,3.80
2018-12-20T23:48:02.717Z,3.80
2018-12-20T23:53:07.553Z,3.60
2018-12-20T23:58:12.594Z,3.80
